Time;durP1;ratioP1;P1;durP2;ratioP2;P2;SDS_P1;SDS_P2;PMS_P1;PMS_P2;Temp;Humidity;BMP_temperature;BMP_pressure;BME280_temperature;BME280_humidity;BME280_pressure;Samples;Min_cycle;Max_cycle;Signal;HPM_P1;HPM_P2
2024/01/30 00:00:06;;;;;;;10.90;5.22;;;9.10;99.90;;;;;;5013356;28;20125;-79
2024/01/30 00:02:32;;;;;;;7.57;4.63;;;9.00;99.90;;;;;;5035971;28;20481;-79
2024/01/30 00:04:58;;;;;;;8.95;4.72;;;9.00;99.90;;;;;;4991001;28;20043;-79
2024/01/30 00:07:23;;;;;;;10.77;4.82;;;9.00;99.90;;;;;;5010829;28;20178;-78
2024/01/30 00:09:49;;;;;;;8.30;4.72;;;9.00;99.90;;;;;;5009387;28;20055;-78
2024/01/30 00:12:15;;;;;;;7.13;5.25;;;9.00;99.90;;;;;;5007664;28;21177;-80
2024/01/30 00:14:43;;;;;;;10.15;5.18;;;8.90;99.90;;;;;;4989629;28;20194;-78
2024/01/30 00:17:09;;;;;;;9.82;4.82;;;9.00;99.90;;;;;;4991909;28;20440;-80
2024/01/30 00:19:35;;;;;;;9.32;5.43;;;9.00;99.90;;;;;;4992751;28;20032;-78
2024/01/30 00:22:00;;;;;;;10.80;5.78;;;9.00;99.90;;;;;;5005582;28;20229;-79
2024/01/30 00:24:26;;;;;;;8.70;5.25;;;8.90;99.90;;;;;;5004787;28;20032;-79
2024/01/30 00:26:52;;;;;;;6.97;5.10;;;8.90;99.90;;;;;;5022497;28;20032;-80
2024/01/30 00:29:19;;;;;;;9.23;5.63;;;8.90;99.90;;;;;;5024262;28;20071;-79
2024/01/30 00:31:45;;;;;;;10.88;6.15;;;8.90;99.90;;;;;;5005380;28;20421;-80
2024/01/30 00:34:11;;;;;;;9.70;5.93;;;8.90;99.90;;;;;;5006632;28;20560;-79
2024/01/30 00:36:37;;;;;;;9.77;6.43;;;8.90;99.90;;;;;;5022574;28;20103;-79
2024/01/30 00:39:06;;;;;;;6.80;5.50;;;8.90;99.90;;;;;;5005851;28;20044;-79
2024/01/30 00:41:32;;;;;;;9.57;6.10;;;8.90;99.90;;;;;;4993156;28;20033;-79
2024/01/30 00:43:57;;;;;;;9.85;5.75;;;8.90;99.90;;;;;;5007521;28;20374;-79
2024/01/30 00:46:23;;;;;;;7.32;5.20;;;8.90;99.90;;;;;;5006741;28;20029;-79
2024/01/30 00:48:49;;;;;;;11.65;6.20;;;9.00;99.90;;;;;;5008002;28;20095;-79
2024/01/30 00:51:14;;;;;;;7.32;5.78;;;8.90;99.90;;;;;;5009235;28;20029;-79
2024/01/30 00:53:41;;;;;;;10.50;6.40;;;8.90;99.90;;;;;;5036466;28;20044;-78
2024/01/30 00:56:07;;;;;;;8.30;5.85;;;8.90;99.90;;;;;;5039414;28;20526;-80
2024/01/30 00:58:33;;;;;;;11.65;5.68;;;8.90;99.90;;;;;;5020677;28;20029;-79
2024/01/30 01:00:59;;;;;;;8.32;5.57;;;8.90;99.90;;;;;;5006564;28;20041;-79
2024/01/30 01:03:25;;;;;;;7.57;5.68;;;8.90;99.90;;;;;;5005422;28;20028;-79
2024/01/30 01:05:50;;;;;;;11.68;6.00;;;8.90;99.90;;;;;;5006527;28;20460;-78
2024/01/30 01:08:16;;;;;;;9.80;6.13;;;8.90;99.90;;;;;;5004840;28;20537;-79
2024/01/30 01:10:42;;;;;;;7.75;5.30;;;8.90;99.90;;;;;;5036900;28;20033;-79
2024/01/30 01:13:07;;;;;;;12.02;5.55;;;8.90;99.90;;;;;;5007483;28;20160;-78
2024/01/30 01:15:33;;;;;;;10.52;5.85;;;8.90;99.90;;;;;;5008900;28;20514;-78
2024/01/30 01:17:58;;;;;;;10.63;5.90;;;8.80;99.90;;;;;;5039574;28;20033;-78
2024/01/30 01:20:24;;;;;;;11.32;6.47;;;8.90;99.90;;;;;;5018710;28;20032;-79
2024/01/30 01:22:50;;;;;;;9.32;6.80;;;8.90;99.90;;;;;;4994205;28;20429;-79
2024/01/30 01:25:15;;;;;;;8.80;6.13;;;8.80;99.90;;;;;;4996301;28;20396;-80
2024/01/30 01:27:42;;;;;;;10.90;5.25;;;8.80;99.90;;;;;;5022064;28;20064;-79
2024/01/30 01:30:13;;;;;;;11.77;5.90;;;8.80;99.90;;;;;;5009750;28;20120;-79
2024/01/30 01:32:44;;;;;;;8.90;5.70;;;8.80;99.90;;;;;;5022848;28;20804;-79
2024/01/30 01:35:10;;;;;;;8.02;5.13;;;8.80;99.90;;;;;;5023302;28;20039;-80
2024/01/30 01:37:39;;;;;;;10.80;6.30;;;8.80;99.90;;;;;;5006393;28;20060;-80
2024/01/30 01:40:07;;;;;;;10.05;5.78;;;8.80;99.90;;;;;;4998228;28;20104;-80
2024/01/30 01:42:33;;;;;;;8.70;5.78;;;8.70;99.90;;;;;;5013611;28;20021;-80
2024/01/30 01:44:58;;;;;;;8.35;5.85;;;8.70;99.90;;;;;;5005667;28;20148;-80
2024/01/30 01:47:24;;;;;;;13.55;6.85;;;8.70;99.90;;;;;;5006304;28;20037;-80
2024/01/30 01:49:50;;;;;;;10.30;6.85;;;8.60;99.90;;;;;;5004299;28;20029;-80
2024/01/30 01:52:15;;;;;;;9.48;6.47;;;8.50;99.90;;;;;;5022261;28;20039;-80
2024/01/30 01:54:43;;;;;;;9.32;6.03;;;8.50;99.90;;;;;;5005419;28;20037;-80
2024/01/30 01:57:09;;;;;;;12.45;6.63;;;8.60;99.90;;;;;;5005824;28;20033;-80
2024/01/30 01:59:35;;;;;;;8.52;6.10;;;8.60;99.90;;;;;;5009246;28;20049;-80
2024/01/30 02:02:00;;;;;;;13.57;7.18;;;8.60;99.90;;;;;;4992516;28;20025;-79
2024/01/30 02:04:26;;;;;;;14.00;7.57;;;8.60;99.90;;;;;;5020741;28;20851;-80
2024/01/30 02:06:52;;;;;;;12.57;6.88;;;8.60;99.90;;;;;;4999362;28;20040;-79
2024/01/30 02:09:18;;;;;;;7.38;5.72;;;8.60;99.90;;;;;;5022831;28;20519;-80
2024/01/30 02:11:46;;;;;;;12.45;6.38;;;8.60;99.90;;;;;;5007118;28;20075;-79
2024/01/30 02:14:12;;;;;;;9.75;5.63;;;8.60;99.90;;;;;;4992239;28;20040;-79
2024/01/30 02:16:51;;;;;;;10.23;5.95;;;8.60;99.90;;;;;;5021932;28;20026;-79
2024/01/30 02:19:17;;;;;;;11.63;7.30;;;8.60;99.90;;;;;;4999746;28;20564;-78
2024/01/30 02:21:43;;;;;;;11.02;5.75;;;8.50;99.90;;;;;;4992006;28;20017;-79
2024/01/30 02:24:08;;;;;;;11.52;5.80;;;8.50;99.90;;;;;;5007163;28;20095;-78
2024/01/30 02:26:34;;;;;;;11.48;6.65;;;8.50;99.90;;;;;;5005707;28;20029;-79
2024/01/30 02:28:59;;;;;;;9.07;5.25;;;8.40;99.90;;;;;;5010076;28;20037;-79
2024/01/30 02:31:26;;;;;;;8.50;5.68;;;8.50;99.90;;;;;;5012593;28;20034;-78
2024/01/30 02:33:52;;;;;;;11.10;6.30;;;8.50;99.90;;;;;;5021717;28;20029;-78
2024/01/30 02:36:17;;;;;;;9.48;5.28;;;8.50;99.90;;;;;;4991891;28;20053;-78
2024/01/30 02:38:43;;;;;;;8.80;5.57;;;8.40;99.90;;;;;;5004939;28;20128;-78
2024/01/30 02:41:09;;;;;;;9.05;4.88;;;8.40;99.90;;;;;;4994497;28;20047;-87
2024/01/30 02:43:34;;;;;;;10.68;6.13;;;8.40;99.90;;;;;;5015139;28;20549;-84
2024/01/30 02:46:00;;;;;;;8.00;4.47;;;8.40;99.90;;;;;;5013509;28;20550;-86
2024/01/30 02:48:26;;;;;;;11.50;5.95;;;8.40;99.90;;;;;;5023750;28;20032;-85
2024/01/30 02:50:52;;;;;;;7.53;4.85;;;8.40;99.90;;;;;;5026084;28;20029;-85
2024/01/30 02:53:17;;;;;;;9.02;4.88;;;8.40;99.90;;;;;;5027213;28;20523;-85
2024/01/30 02:55:43;;;;;;;8.27;6.25;;;8.40;99.90;;;;;;5028438;28;20033;-87
2024/01/30 02:58:09;;;;;;;8.25;5.80;;;8.30;99.90;;;;;;5013004;28;20554;-84
2024/01/30 03:00:35;;;;;;;7.57;4.90;;;8.40;99.90;;;;;;5011538;28;20037;-85
2024/01/30 03:03:00;;;;;;;8.90;5.25;;;8.40;99.90;;;;;;4996676;28;20496;-86
2024/01/30 03:05:26;;;;;;;7.90;4.65;;;8.40;99.90;;;;;;5027532;28;20111;-84
2024/01/30 03:07:52;;;;;;;10.45;5.90;;;8.40;99.90;;;;;;4996666;28;20083;-87
2024/01/30 03:10:17;;;;;;;10.77;5.82;;;8.40;99.90;;;;;;5011639;28;20052;-87
2024/01/30 03:12:43;;;;;;;8.25;5.35;;;8.40;99.90;;;;;;5025810;28;20038;-88
2024/01/30 03:15:09;;;;;;;8.05;5.70;;;8.40;99.90;;;;;;5044346;28;20491;-87
2024/01/30 03:17:36;;;;;;;9.95;5.13;;;8.30;99.90;;;;;;5013266;28;20089;-85
2024/01/30 03:20:03;;;;;;;6.75;5.05;;;8.40;99.90;;;;;;5025938;28;20672;-87
2024/01/30 03:22:29;;;;;;;14.35;6.65;;;8.40;99.90;;;;;;5001322;28;20144;-87
2024/01/30 03:24:55;;;;;;;7.07;4.82;;;8.40;99.90;;;;;;5028940;28;20123;-87
2024/01/30 03:27:20;;;;;;;9.30;5.55;;;8.40;99.90;;;;;;5028127;28;20032;-87
2024/01/30 03:29:46;;;;;;;8.55;6.18;;;8.40;99.90;;;;;;4998971;28;20099;-88
2024/01/30 03:32:12;;;;;;;7.43;5.05;;;8.40;99.90;;;;;;5027628;28;20061;-88
2024/01/30 03:34:37;;;;;;;11.25;6.65;;;8.40;99.90;;;;;;5009323;28;20485;-85
2024/01/30 03:37:03;;;;;;;5.88;4.68;;;8.40;99.90;;;;;;4992657;28;20028;-87
2024/01/30 03:39:29;;;;;;;11.32;6.07;;;8.30;99.90;;;;;;5000119;28;20033;-88
2024/01/30 03:41:54;;;;;;;10.50;5.28;;;8.40;99.90;;;;;;5008641;28;20052;-84
2024/01/30 03:44:20;;;;;;;8.98;6.03;;;8.40;99.90;;;;;;5009339;28;20071;-88
2024/01/30 03:46:46;;;;;;;9.13;5.50;;;8.30;99.90;;;;;;5014641;28;20144;-91
2024/01/30 03:49:11;;;;;;;10.82;5.50;;;8.30;99.90;;;;;;5026125;28;20538;-78
2024/01/30 03:51:37;;;;;;;11.35;6.18;;;8.30;99.90;;;;;;5023800;28;20045;-79
2024/01/30 03:54:03;;;;;;;7.20;4.90;;;8.20;99.90;;;;;;5007792;28;20606;-86
2024/01/30 03:56:28;;;;;;;9.35;4.85;;;8.30;99.90;;;;;;5027565;28;20048;-87
2024/01/30 03:58:55;;;;;;;9.60;5.57;;;8.30;99.90;;;;;;5015404;28;20087;-82
2024/01/30 04:01:23;;;;;;;7.78;4.68;;;8.30;99.90;;;;;;5009595;28;20393;-82
2024/01/30 04:03:48;;;;;;;6.10;4.47;;;8.30;99.90;;;;;;5009307;28;20030;-82
2024/01/30 04:06:14;;;;;;;9.57;4.38;;;8.30;99.90;;;;;;5025114;28;20041;-82
2024/01/30 04:08:39;;;;;;;10.98;6.28;;;8.30;99.90;;;;;;5010264;28;20091;-82
2024/01/30 04:11:05;;;;;;;9.98;5.70;;;8.30;99.90;;;;;;5029737;28;20150;-82
2024/01/30 04:13:35;;;;;;;7.38;4.50;;;8.30;99.90;;;;;;5008073;28;20125;-83
2024/01/30 04:16:04;;;;;;;7.00;4.70;;;8.30;99.90;;;;;;5010218;28;20064;-83
2024/01/30 04:18:29;;;;;;;11.30;4.93;;;8.40;99.90;;;;;;5026423;28;20028;-84
2024/01/30 04:20:55;;;;;;;10.38;5.05;;;8.30;99.90;;;;;;5013473;28;20060;-83
2024/01/30 04:23:21;;;;;;;7.30;4.80;;;8.30;99.90;;;;;;5009458;28;20036;-84
2024/01/30 04:25:46;;;;;;;9.20;5.10;;;8.30;99.90;;;;;;4996864;28;20457;-84
2024/01/30 04:28:12;;;;;;;10.57;6.03;;;8.30;99.90;;;;;;5012625;28;21471;-84
2024/01/30 04:30:38;;;;;;;10.70;6.18;;;8.30;99.90;;;;;;5043466;28;20036;-84
2024/01/30 04:33:04;;;;;;;10.60;4.93;;;8.30;99.90;;;;;;5017509;28;20071;-85
2024/01/30 04:35:30;;;;;;;8.25;4.95;;;8.30;99.90;;;;;;5011066;28;20036;-85
2024/01/30 04:37:55;;;;;;;9.82;5.80;;;8.30;99.90;;;;;;5023553;28;20407;-84
2024/01/30 04:40:21;;;;;;;9.65;4.57;;;8.30;99.90;;;;;;5022264;28;20025;-85
2024/01/30 04:42:47;;;;;;;8.73;5.32;;;8.30;99.90;;;;;;5023585;28;20035;-85
2024/01/30 04:45:12;;;;;;;9.35;5.07;;;8.30;99.90;;;;;;5005950;28;21044;-85
2024/01/30 04:47:38;;;;;;;10.90;6.20;;;8.30;99.90;;;;;;5025222;28;20037;-85
2024/01/30 04:50:06;;;;;;;8.75;5.22;;;8.30;99.90;;;;;;5008468;28;20108;-85
2024/01/30 04:52:32;;;;;;;6.30;4.97;;;8.30;99.90;;;;;;5037638;28;20029;-86
2024/01/30 04:54:57;;;;;;;7.18;4.65;;;8.20;99.90;;;;;;5026119;28;20047;-86
2024/01/30 04:57:23;;;;;;;7.88;5.03;;;8.30;99.90;;;;;;5009033;28;20045;-88
2024/01/30 04:59:48;;;;;;;10.23;4.97;;;8.30;99.90;;;;;;5024311;28;20048;-87
2024/01/30 05:02:15;;;;;;;7.72;4.93;;;8.30;99.90;;;;;;4992803;28;20037;-88
2024/01/30 05:04:41;;;;;;;8.38;4.82;;;8.20;99.90;;;;;;5027190;28;20361;-86
2024/01/30 05:07:06;;;;;;;8.20;5.40;;;8.20;99.90;;;;;;4992749;28;20151;-89
2024/01/30 05:09:32;;;;;;;8.13;5.55;;;8.20;99.90;;;;;;5025754;28;20108;-88
2024/01/30 05:11:58;;;;;;;9.73;5.53;;;8.20;99.90;;;;;;5043385;28;20100;-87
2024/01/30 05:14:23;;;;;;;9.82;5.95;;;8.20;99.90;;;;;;5009712;28;20433;-89
2024/01/30 05:16:49;;;;;;;12.52;5.75;;;8.20;99.90;;;;;;5010007;28;20029;-88
2024/01/30 05:19:15;;;;;;;8.77;5.03;;;8.20;99.90;;;;;;5011765;28;20037;-89
2024/01/30 05:21:41;;;;;;;9.25;5.20;;;8.20;99.90;;;;;;4994516;28;20040;-88
2024/01/30 05:24:07;;;;;;;7.47;4.78;;;8.20;99.90;;;;;;4994610;28;20435;-88
2024/01/30 05:26:32;;;;;;;11.38;5.10;;;8.20;99.90;;;;;;5024799;28;20036;-88
2024/01/30 05:28:58;;;;;;;6.35;4.68;;;8.20;99.90;;;;;;5025779;28;20658;-88
2024/01/30 05:31:26;;;;;;;9.88;5.72;;;8.20;99.90;;;;;;5011521;28;20504;-91
2024/01/30 05:33:51;;;;;;;8.25;5.50;;;8.30;99.90;;;;;;5009979;28;20039;-91
2024/01/30 05:36:17;;;;;;;9.25;5.03;;;8.30;99.90;;;;;;5009096;28;20041;-92
2024/01/30 05:38:42;;;;;;;9.35;5.40;;;8.20;99.90;;;;;;4994523;28;20087;-90
2024/01/30 05:41:08;;;;;;;7.25;4.32;;;8.20;99.90;;;;;;5009333;28;20504;-91
2024/01/30 05:43:34;;;;;;;12.75;6.07;;;8.10;99.90;;;;;;5012593;28;20554;-89
2024/01/30 05:46:02;;;;;;;9.77;5.75;;;8.10;99.90;;;;;;5021548;28;20029;-90
2024/01/30 05:48:27;;;;;;;9.27;5.40;;;8.10;99.90;;;;;;4996309;28;20029;-88
2024/01/30 05:50:53;;;;;;;6.88;4.85;;;8.10;99.90;;;;;;4994801;28;20046;-91
2024/01/30 05:53:18;;;;;;;8.73;5.05;;;8.20;99.90;;;;;;5024640;28;20044;-89
2024/01/30 05:55:44;;;;;;;8.32;5.53;;;8.10;99.90;;;;;;4997393;28;20041;-89
2024/01/30 05:58:09;;;;;;;11.35;5.50;;;8.20;99.90;;;;;;4991054;28;20188;-90
2024/01/30 06:00:35;;;;;;;8.20;4.95;;;8.20;99.90;;;;;;4995398;28;20030;-86
2024/01/30 06:03:03;;;;;;;12.80;6.57;;;8.20;99.90;;;;;;4993663;28;20072;-85
2024/01/30 06:05:28;;;;;;;7.78;5.47;;;8.20;99.90;;;;;;5021675;28;20083;-88
2024/01/30 06:07:54;;;;;;;9.32;5.60;;;8.30;99.90;;;;;;5004014;28;20059;-86
2024/01/30 06:10:19;;;;;;;15.73;6.35;;;8.20;99.90;;;;;;5008914;28;20059;-89
2024/01/30 06:12:45;;;;;;;10.05;5.60;;;8.20;99.90;;;;;;5042932;28;20072;-78
2024/01/30 06:15:12;;;;;;;9.10;5.57;;;8.20;99.90;;;;;;5010636;28;20460;-79
2024/01/30 06:17:38;;;;;;;11.15;4.78;;;8.20;99.90;;;;;;5026937;28;20033;-79
2024/01/30 06:20:09;;;;;;;11.20;5.40;;;8.20;99.90;;;;;;5010753;28;20044;-80
2024/01/30 06:22:34;;;;;;;15.00;5.03;;;8.20;99.90;;;;;;4995495;28;20477;-80
2024/01/30 06:25:00;;;;;;;10.43;5.55;;;8.30;99.90;;;;;;5009202;28;20068;-79
2024/01/30 06:27:25;;;;;;;11.35;5.68;;;8.20;99.90;;;;;;5006073;28;20059;-78
2024/01/30 06:29:51;;;;;;;8.43;5.75;;;8.20;99.90;;;;;;4992311;28;20484;-79
2024/01/30 06:32:16;;;;;;;11.15;6.32;;;8.10;99.90;;;;;;5028105;28;20037;-78
2024/01/30 06:34:44;;;;;;;10.10;5.47;;;8.10;99.90;;;;;;5024507;28;20025;-78
2024/01/30 06:37:10;;;;;;;12.80;6.50;;;8.20;99.90;;;;;;5012700;28;20048;-81
2024/01/30 06:39:36;;;;;;;8.60;5.20;;;8.30;99.90;;;;;;5022950;28;20041;-79
2024/01/30 06:42:01;;;;;;;9.93;6.00;;;8.20;99.90;;;;;;5024061;28;20033;-79
2024/01/30 06:44:28;;;;;;;9.50;4.78;;;8.10;99.90;;;;;;5008238;28;20041;-79
2024/01/30 06:46:53;;;;;;;9.85;5.68;;;8.20;99.90;;;;;;4998510;28;20036;-78
2024/01/30 06:49:19;;;;;;;7.88;4.90;;;8.20;99.90;;;;;;5012624;28;20109;-79
2024/01/30 06:51:44;;;;;;;9.10;5.13;;;8.10;99.90;;;;;;4995533;28;20025;-79
2024/01/30 06:54:10;;;;;;;9.70;5.90;;;8.20;99.90;;;;;;4994816;28;20029;-79
2024/01/30 06:56:35;;;;;;;8.30;5.18;;;8.30;99.90;;;;;;5007786;28;20041;-79
2024/01/30 06:59:01;;;;;;;8.27;5.22;;;8.30;99.90;;;;;;5024301;28;20515;-78
2024/01/30 07:01:29;;;;;;;7.43;4.80;;;8.30;99.90;;;;;;5006275;28;20496;-79
2024/01/30 07:03:55;;;;;;;8.60;4.93;;;8.30;99.90;;;;;;5023403;28;20075;-78
2024/01/30 07:06:22;;;;;;;9.40;4.88;;;8.30;99.90;;;;;;4996701;28;20036;-79
2024/01/30 07:08:48;;;;;;;11.95;5.65;;;8.30;99.90;;;;;;4996655;28;20500;-78
2024/01/30 07:11:23;;;;;;;7.68;5.07;;;8.30;99.90;;;;;;5023172;28;20515;-79
2024/01/30 07:13:50;;;;;;;8.73;5.03;;;8.30;99.90;;;;;;5024161;28;20102;-78
2024/01/30 07:16:16;;;;;;;7.82;5.43;;;8.30;99.90;;;;;;5026811;28;20113;-78
2024/01/30 07:18:41;;;;;;;9.80;5.25;;;8.40;99.90;;;;;;5036992;28;20056;-78
2024/01/30 07:21:07;;;;;;;12.35;5.45;;;8.30;99.90;;;;;;5000135;28;20041;-79
2024/01/30 07:23:34;;;;;;;11.70;6.20;;;8.40;99.90;;;;;;5034871;28;20051;-87
2024/01/30 07:26:00;;;;;;;15.80;5.45;;;8.30;99.90;;;;;;5006342;28;20075;-85
2024/01/30 07:28:29;;;;;;;16.27;5.95;;;8.40;99.90;;;;;;5037505;28;20036;-87
2024/01/30 07:30:54;;;;;;;10.75;6.45;;;8.40;99.90;;;;;;5022009;28;20037;-90
2024/01/30 07:33:20;;;;;;;14.65;6.07;;;8.40;99.90;;;;;;5040133;28;20055;-90
2024/01/30 07:35:46;;;;;;;11.23;6.47;;;8.40;99.90;;;;;;5033807;28;20136;-89
2024/01/30 07:38:11;;;;;;;13.88;6.53;;;8.50;99.90;;;;;;5023260;28;20029;-91
2024/01/30 07:40:37;;;;;;;12.07;6.15;;;8.50;99.90;;;;;;5015275;28;20045;-90
2024/01/30 07:43:03;;;;;;;13.77;6.15;;;8.50;99.90;;;;;;5022309;28;20155;-84
2024/01/30 07:45:32;;;;;;;11.77;6.38;;;8.50;99.90;;;;;;5036865;28;20033;-88
2024/01/30 07:47:58;;;;;;;16.27;6.43;;;8.60;99.90;;;;;;5033220;28;20036;-88
2024/01/30 07:50:23;;;;;;;7.43;4.80;;;8.60;99.90;;;;;;5000130;28;20118;-92
2024/01/30 07:52:51;;;;;;;8.55;4.80;;;8.60;99.90;;;;;;4998102;28;20053;-90
2024/01/30 07:55:16;;;;;;;13.15;5.10;;;8.70;99.90;;;;;;5015198;28;20132;-91
2024/01/30 07:57:42;;;;;;;6.32;4.32;;;8.70;99.90;;;;;;5029746;28;20061;-87
2024/01/30 08:00:08;;;;;;;7.15;4.88;;;8.80;99.90;;;;;;4995863;28;21290;-91
2024/01/30 08:02:34;;;;;;;8.88;5.13;;;8.80;99.90;;;;;;4994241;28;20049;-91
2024/01/30 08:04:59;;;;;;;9.48;4.93;;;8.80;99.90;;;;;;5028740;28;20061;-90
2024/01/30 08:07:25;;;;;;;11.57;5.20;;;8.90;99.90;;;;;;5026866;28;20116;-88
2024/01/30 08:09:51;;;;;;;17.17;5.97;;;8.90;99.90;;;;;;5013964;28;20096;-90
2024/01/30 08:12:17;;;;;;;21.23;5.93;;;8.90;99.90;;;;;;4997604;28;20116;-89
2024/01/30 08:14:42;;;;;;;12.43;4.90;;;9.00;99.90;;;;;;4999449;28;20037;-90
2024/01/30 08:17:08;;;;;;;9.95;4.97;;;9.10;99.90;;;;;;5017284;28;20420;-88
2024/01/30 08:19:33;;;;;;;6.35;4.88;;;9.20;99.90;;;;;;5044009;28;20567;-87
2024/01/30 08:21:59;;;;;;;9.52;5.20;;;9.10;99.90;;;;;;5027746;28;20059;-85
2024/01/30 08:24:25;;;;;;;12.27;5.20;;;9.20;99.90;;;;;;5009321;28;20033;-89
2024/01/30 08:26:52;;;;;;;8.98;4.82;;;9.30;99.90;;;;;;5012543;28;20481;-86
2024/01/30 08:29:18;;;;;;;9.75;4.45;;;9.30;99.90;;;;;;5011615;28;20094;-87
2024/01/30 08:31:44;;;;;;;7.85;4.15;;;9.30;99.90;;;;;;5014189;28;20412;-88
2024/01/30 08:34:09;;;;;;;9.02;5.47;;;9.40;99.90;;;;;;5041635;28;20133;-79
2024/01/30 08:36:35;;;;;;;9.35;5.55;;;9.30;99.90;;;;;;5024008;28;20061;-79
2024/01/30 08:39:02;;;;;;;9.15;5.05;;;9.40;99.90;;;;;;5022465;28;20144;-79
2024/01/30 08:41:28;;;;;;;12.55;6.50;;;9.30;99.90;;;;;;4994219;28;20124;-79
2024/01/30 08:43:54;;;;;;;7.50;4.60;;;9.40;99.90;;;;;;5024682;28;20112;-79
2024/01/30 08:46:19;;;;;;;11.57;5.50;;;9.50;99.90;;;;;;5024746;28;20057;-78
2024/01/30 08:48:46;;;;;;;7.32;5.35;;;9.50;99.90;;;;;;4994269;28;20033;-79
2024/01/30 08:51:12;;;;;;;10.35;4.97;;;9.60;99.90;;;;;;5009460;28;20045;-79
2024/01/30 08:53:37;;;;;;;9.30;5.00;;;9.60;99.90;;;;;;4992743;28;20578;-79
2024/01/30 08:56:03;;;;;;;9.57;4.47;;;9.60;99.90;;;;;;5023768;28;20037;-79
2024/01/30 08:58:29;;;;;;;6.43;4.25;;;9.60;99.90;;;;;;5023766;28;20048;-79
2024/01/30 09:00:55;;;;;;;7.88;4.70;;;9.60;99.90;;;;;;5009061;28;20037;-78
2024/01/30 09:03:20;;;;;;;13.93;5.13;;;9.70;99.90;;;;;;5007665;28;20388;-77
2024/01/30 09:05:46;;;;;;;9.63;5.57;;;9.70;99.90;;;;;;5007903;28;20037;-78
2024/01/30 09:08:11;;;;;;;10.68;4.97;;;9.90;99.90;;;;;;5022403;28;20089;-78
2024/01/30 09:10:37;;;;;;;17.38;5.90;;;9.80;99.90;;;;;;5003241;28;20058;-79
2024/01/30 09:13:03;;;;;;;7.18;4.38;;;9.80;99.90;;;;;;5022771;28;20040;-78
2024/01/30 09:15:28;;;;;;;11.20;5.30;;;9.90;99.90;;;;;;5009782;28;20039;-79
2024/01/30 09:17:54;;;;;;;9.15;5.03;;;9.90;99.90;;;;;;4994192;28;20469;-79
2024/01/30 09:20:20;;;;;;;9.68;3.88;;;9.90;99.90;;;;;;5018929;28;20393;-78
2024/01/30 09:22:49;;;;;;;8.30;4.50;;;10.00;99.90;;;;;;4993971;28;20033;-89
2024/01/30 09:25:14;;;;;;;5.68;4.32;;;10.00;99.90;;;;;;5028558;28;20706;-89
2024/01/30 09:27:40;;;;;;;5.78;4.05;;;10.00;99.90;;;;;;4989457;28;20033;-88
2024/01/30 09:30:06;;;;;;;5.55;3.63;;;10.00;99.90;;;;;;5006846;28;20039;-89
2024/01/30 09:32:32;;;;;;;8.18;4.40;;;10.10;99.90;;;;;;5007765;28;20599;-88
2024/01/30 09:34:57;;;;;;;6.70;3.72;;;10.10;99.90;;;;;;4996244;28;20036;-87
2024/01/30 09:37:23;;;;;;;7.65;4.15;;;10.10;99.90;;;;;;5027120;28;20028;-86
2024/01/30 09:39:49;;;;;;;8.52;3.80;;;10.20;99.90;;;;;;5011613;28;20060;-85
2024/01/30 09:42:33;;;;;;;8.60;4.50;;;10.30;99.90;;;;;;4997459;28;20032;-88
2024/01/30 09:44:59;;;;;;;8.32;3.50;;;10.30;99.90;;;;;;5026775;28;20033;-83
2024/01/30 09:47:24;;;;;;;9.80;4.30;;;10.40;99.90;;;;;;5008106;28;20557;-88
2024/01/30 09:49:51;;;;;;;9.70;5.18;;;10.50;99.90;;;;;;5013593;28;20044;-85
2024/01/30 09:52:16;;;;;;;10.30;5.43;;;10.40;99.90;;;;;;5020710;28;20195;-85
2024/01/30 09:54:42;;;;;;;8.55;3.95;;;10.50;99.90;;;;;;5006880;28;20045;-87
2024/01/30 09:57:08;;;;;;;8.10;4.63;;;10.60;99.90;;;;;;5020904;28;20082;-85
2024/01/30 09:59:33;;;;;;;7.05;4.88;;;10.60;99.90;;;;;;5010289;28;20028;-86
2024/01/30 10:01:59;;;;;;;8.30;4.55;;;10.70;99.90;;;;;;5026465;28;20029;-86
2024/01/30 10:04:25;;;;;;;5.20;2.75;;;10.70;99.90;;;;;;5012762;28;20021;-87
2024/01/30 10:06:51;;;;;;;6.80;4.80;;;10.80;99.90;;;;;;4995616;28;20039;-86
2024/01/30 10:09:16;;;;;;;8.57;4.50;;;10.90;99.90;;;;;;5025739;28;20370;-86
2024/01/30 10:11:42;;;;;;;7.93;3.70;;;11.00;99.90;;;;;;4995511;28;20036;-86
2024/01/30 10:14:08;;;;;;;12.00;5.43;;;11.10;99.90;;;;;;5027333;28;20017;-86
2024/01/30 10:16:34;;;;;;;8.68;4.30;;;11.10;99.90;;;;;;5022860;28;20037;-86
2024/01/30 10:19:00;;;;;;;8.27;3.83;;;11.20;99.90;;;;;;5009526;28;20489;-85
2024/01/30 10:21:25;;;;;;;9.95;4.35;;;11.30;99.90;;;;;;5007697;28;20025;-85
2024/01/30 10:23:51;;;;;;;13.45;4.40;;;11.30;99.90;;;;;;5009485;28;20029;-87
2024/01/30 10:26:17;;;;;;;9.27;4.47;;;11.40;99.90;;;;;;5010109;28;20033;-87
2024/01/30 10:28:43;;;;;;;6.57;4.53;;;11.50;99.90;;;;;;5005449;28;20511;-86
2024/01/30 10:31:08;;;;;;;6.75;4.22;;;11.50;99.90;;;;;;5011872;28;20033;-85
2024/01/30 10:33:34;;;;;;;11.23;4.22;;;11.60;99.90;;;;;;5020953;28;20500;-85
2024/01/30 10:36:04;;;;;;;9.32;4.53;;;11.60;99.90;;;;;;5013292;28;20043;-85
2024/01/30 10:38:30;;;;;;;8.55;4.55;;;11.70;99.90;;;;;;4997138;28;20107;-84
2024/01/30 10:41:00;;;;;;;8.38;4.43;;;11.80;99.90;;;;;;5011315;28;20123;-84
2024/01/30 10:43:39;;;;;;;10.98;4.85;;;12.00;99.90;;;;;;4994048;28;20038;-85
2024/01/30 10:46:13;;;;;;;5.85;2.90;;;12.00;99.90;;;;;;5006505;28;20037;-86
2024/01/30 10:48:48;;;;;;;11.70;4.72;;;12.10;99.90;;;;;;5022774;28;20037;-83
2024/01/30 10:51:14;;;;;;;10.90;6.07;;;12.20;99.90;;;;;;5024802;28;20041;-84
2024/01/30 10:53:40;;;;;;;7.07;3.03;;;12.30;99.90;;;;;;5008379;28;20041;-83
2024/01/30 10:56:05;;;;;;;7.05;3.83;;;12.30;99.90;;;;;;5021537;28;20098;-79
2024/01/30 10:58:32;;;;;;;5.68;3.85;;;12.40;99.90;;;;;;5007136;28;20492;-79
2024/01/30 11:00:58;;;;;;;6.90;2.97;;;12.50;99.90;;;;;;5009390;28;20041;-79
2024/01/30 11:03:24;;;;;;;7.82;4.15;;;12.60;99.90;;;;;;5006879;28;20059;-79
2024/01/30 11:05:53;;;;;;;10.75;3.88;;;12.70;99.90;;;;;;5009506;28;20485;-79
2024/01/30 11:08:25;;;;;;;3.05;2.05;;;12.60;99.90;;;;;;5010137;28;20116;-79
2024/01/30 11:10:55;;;;;;;8.85;5.22;;;12.80;99.90;;;;;;5022359;28;20497;-79
2024/01/30 11:13:21;;;;;;;9.70;5.07;;;12.90;99.90;;;;;;5025357;28;20032;-79
2024/01/30 11:15:48;;;;;;;5.68;3.60;;;12.90;99.90;;;;;;5009805;28;20606;-79
2024/01/30 11:18:25;;;;;;;10.63;4.35;;;13.00;99.90;;;;;;4993333;28;20040;-79
2024/01/30 11:20:51;;;;;;;11.50;5.63;;;13.10;99.90;;;;;;4998475;28;20031;-79
2024/01/30 11:23:17;;;;;;;3.75;2.05;;;13.20;99.90;;;;;;4993351;28;20036;-78
2024/01/30 11:25:44;;;;;;;8.40;4.20;;;13.20;99.90;;;;;;5030702;28;20091;-79
2024/01/30 11:28:15;;;;;;;7.60;4.28;;;13.20;99.90;;;;;;4995075;28;20112;-79
2024/01/30 11:30:41;;;;;;;9.10;3.95;;;13.30;99.90;;;;;;5008310;28;20514;-79
2024/01/30 11:33:11;;;;;;;4.90;2.38;;;13.30;99.90;;;;;;4996195;28;20052;-79
2024/01/30 11:35:40;;;;;;;8.77;3.83;;;13.40;99.90;;;;;;4990405;28;20481;-79
2024/01/30 11:38:06;;;;;;;8.57;4.80;;;13.30;99.90;;;;;;5026980;28;20151;-79
2024/01/30 11:40:41;;;;;;;4.15;2.03;;;13.40;99.90;;;;;;4992235;28;20113;-79
2024/01/30 11:43:11;;;;;;;7.32;3.00;;;13.50;99.90;;;;;;5026750;28;20032;-80
2024/01/30 11:45:46;;;;;;;9.52;3.35;;;13.50;99.90;;;;;;5026946;28;20493;-79
2024/01/30 11:48:12;;;;;;;7.68;3.30;;;13.50;99.90;;;;;;5000717;28;20061;-80
2024/01/30 11:50:38;;;;;;;4.78;2.58;;;13.50;99.90;;;;;;4999550;28;20044;-78
2024/01/30 11:53:04;;;;;;;7.72;4.28;;;13.60;99.90;;;;;;5020964;28;20431;-79
2024/01/30 11:55:30;;;;;;;4.05;2.35;;;13.60;99.90;;;;;;5000717;28;20324;-79
2024/01/30 11:57:59;;;;;;;9.10;4.20;;;13.60;99.90;;;;;;5000279;28;20554;-79
2024/01/30 12:00:25;;;;;;;6.70;3.65;;;13.60;99.90;;;;;;5005550;28;20029;-79
2024/01/30 12:02:52;;;;;;;12.57;5.20;;;13.60;99.90;;;;;;5005035;28;20038;-79
2024/01/30 12:05:19;;;;;;;6.82;3.58;;;13.50;99.90;;;;;;5022843;28;20053;-79
2024/01/30 12:07:45;;;;;;;9.00;3.35;;;13.50;99.90;;;;;;5005341;28;20060;-80
2024/01/30 12:10:13;;;;;;;10.85;3.70;;;13.30;99.90;;;;;;5010868;28;20768;-79
2024/01/30 12:12:39;;;;;;;3.70;2.60;;;13.20;99.90;;;;;;5025334;28;20033;-79
2024/01/30 12:15:06;;;;;;;11.88;3.75;;;13.30;99.90;;;;;;5011588;28;20030;-79
2024/01/30 12:17:32;;;;;;;9.10;4.05;;;13.20;99.90;;;;;;5010975;28;20472;-80
2024/01/30 12:20:11;;;;;;;11.63;6.25;;;13.20;99.90;;;;;;4992549;28;20120;-79
2024/01/30 12:22:41;;;;;;;11.27;5.13;;;13.20;99.90;;;;;;5006562;28;20033;-79
2024/01/30 12:25:10;;;;;;;12.60;5.07;;;13.10;99.90;;;;;;4994146;28;20515;-79
2024/01/30 12:27:36;;;;;;;10.93;4.78;;;13.20;99.90;;;;;;5009429;28;20578;-79
2024/01/30 12:30:13;;;;;;;8.38;4.43;;;13.00;99.90;;;;;;5020741;28;20094;-79
2024/01/30 12:32:43;;;;;;;9.18;3.90;;;13.10;99.90;;;;;;5023009;28;20036;-79
2024/01/30 12:35:13;;;;;;;9.93;5.13;;;13.20;99.90;;;;;;5011168;28;20040;-79
2024/01/30 12:37:41;;;;;;;9.18;3.85;;;13.20;99.90;;;;;;5015300;28;20055;-79
2024/01/30 12:40:11;;;;;;;7.75;4.20;;;13.00;99.90;;;;;;5007014;28;20038;-79
2024/01/30 12:42:36;;;;;;;11.65;5.15;;;13.00;99.90;;;;;;5012687;28;20021;-78
2024/01/30 12:45:03;;;;;;;7.65;4.00;;;13.00;99.90;;;;;;5019443;28;20033;-78